createdAt,value
2024-01-31T00:01:46.294Z,27.30
2024-01-31T00:04:15.554Z,25.40
2024-01-31T00:06:44.594Z,24.90
2024-01-31T00:09:18.148Z,26.52
2024-01-31T00:11:46.987Z,26.48
2024-01-31T00:14:19.494Z,26.35
2024-01-31T00:16:48.358Z,26.38
2024-01-31T00:19:17.441Z,25.55
2024-01-31T00:21:46.411Z,25.88
2024-01-31T00:24:15.605Z,25.10
2024-01-31T00:26:46.550Z,25.52
2024-01-31T00:29:15.067Z,26.08
2024-01-31T00:31:43.516Z,23.45
2024-01-31T00:34:11.986Z,22.33
2024-01-31T00:36:40.334Z,26.33
2024-01-31T00:39:08.745Z,26.17
2024-01-31T00:41:37.031Z,25.40
2024-01-31T00:44:06.993Z,24.80
2024-01-31T00:46:35.439Z,23.08
2024-01-31T00:49:06.287Z,24.98
2024-01-31T00:51:34.746Z,23.23
2024-01-31T00:54:03.104Z,23.65
2024-01-31T00:56:31.483Z,21.67
2024-01-31T00:59:01.909Z,24.77
2024-01-31T01:01:31.717Z,22.55
2024-01-31T01:04:00.353Z,24.27
2024-01-31T01:06:28.758Z,23.92
2024-01-31T01:08:57.217Z,21.92
2024-01-31T01:11:25.534Z,25.40
2024-01-31T01:13:53.952Z,23.45
2024-01-31T01:16:22.369Z,23.60
2024-01-31T01:18:52.071Z,23.98
2024-01-31T01:21:20.507Z,21.85
2024-01-31T01:23:49.819Z,24.95
2024-01-31T01:26:19.246Z,22.30
2024-01-31T01:28:47.692Z,24.85
2024-01-31T01:31:16.174Z,23.98
2024-01-31T01:33:44.750Z,23.17
2024-01-31T01:36:14.529Z,22.58
2024-01-31T01:38:43.114Z,23.50
2024-01-31T01:41:11.662Z,21.92
2024-01-31T01:43:44.033Z,22.40
2024-01-31T01:46:15.854Z,21.85
2024-01-31T01:48:45.781Z,22.75
2024-01-31T01:51:20.025Z,24.85
2024-01-31T01:53:52.797Z,25.55
2024-01-31T01:56:22.811Z,28.17
2024-01-31T01:58:53.779Z,29.50
2024-01-31T02:01:23.787Z,27.55
2024-01-31T02:03:57.792Z,29.13
2024-01-31T02:06:28.719Z,28.67
2024-01-31T02:08:58.156Z,27.50
2024-01-31T02:11:27.416Z,27.40
2024-01-31T02:13:56.613Z,28.55
2024-01-31T02:16:25.762Z,27.90
2024-01-31T02:18:54.800Z,28.08
2024-01-31T02:21:27.038Z,26.40
2024-01-31T02:24:00.346Z,27.67
2024-01-31T02:26:29.454Z,27.40
2024-01-31T02:29:00.707Z,27.75
2024-01-31T02:31:29.682Z,24.60
2024-01-31T02:33:58.777Z,27.70
2024-01-31T02:36:28.008Z,27.50
2024-01-31T02:38:58.438Z,24.45
2024-01-31T02:41:27.270Z,26.27
2024-01-31T02:43:56.448Z,27.05
2024-01-31T02:46:27.323Z,27.52
2024-01-31T02:48:56.161Z,26.77
2024-01-31T02:51:24.604Z,25.08
2024-01-31T02:53:53.087Z,28.13
2024-01-31T02:56:22.847Z,26.75
2024-01-31T02:58:51.181Z,26.38
2024-01-31T03:01:19.583Z,26.15
2024-01-31T03:03:48.245Z,27.10
2024-01-31T03:06:16.682Z,25.95
2024-01-31T03:08:45.178Z,27.10
2024-01-31T03:11:13.506Z,25.60
2024-01-31T03:13:43.450Z,25.00
2024-01-31T03:16:11.902Z,26.52
2024-01-31T03:18:40.333Z,24.92
2024-01-31T03:21:09.238Z,25.92
2024-01-31T03:23:37.583Z,25.25
2024-01-31T03:26:05.076Z,23.35
2024-01-31T03:28:34.131Z,24.85
2024-01-31T03:31:03.944Z,25.05
2024-01-31T03:33:32.422Z,25.65
2024-01-31T03:36:00.811Z,25.40
2024-01-31T03:38:29.183Z,24.63
2024-01-31T03:40:57.540Z,24.50
2024-01-31T03:43:25.963Z,25.77
2024-01-31T03:45:54.378Z,23.02
2024-01-31T03:48:24.179Z,22.00
2024-01-31T03:50:52.573Z,24.13
2024-01-31T03:53:21.054Z,23.90
2024-01-31T03:55:49.549Z,23.10
2024-01-31T03:58:17.922Z,22.35
2024-01-31T04:00:46.444Z,23.92
2024-01-31T04:03:14.941Z,23.25
2024-01-31T04:05:45.052Z,24.05
2024-01-31T04:08:13.444Z,23.05
2024-01-31T04:10:42.001Z,23.10
2024-01-31T04:13:10.579Z,24.92
2024-01-31T04:15:38.934Z,21.83
2024-01-31T04:18:09.119Z,26.40
2024-01-31T04:20:39.936Z,23.40
2024-01-31T04:23:10.144Z,23.10
2024-01-31T04:25:38.536Z,23.42
2024-01-31T04:28:07.384Z,24.75
2024-01-31T04:30:35.825Z,23.27
2024-01-31T04:33:04.615Z,23.38
2024-01-31T04:35:33.442Z,24.60
2024-01-31T04:38:01.842Z,23.02
2024-01-31T04:40:31.816Z,23.33
2024-01-31T04:43:00.284Z,23.63
2024-01-31T04:45:28.557Z,22.85
2024-01-31T04:47:56.977Z,23.38
2024-01-31T04:50:25.597Z,22.42
2024-01-31T04:52:54.520Z,20.42
2024-01-31T04:55:22.909Z,24.95
2024-01-31T04:57:52.657Z,22.80
2024-01-31T05:00:25.067Z,24.17
2024-01-31T05:02:53.441Z,19.95
2024-01-31T05:05:22.193Z,26.02
2024-01-31T05:07:50.758Z,23.63
2024-01-31T05:10:19.899Z,24.20
2024-01-31T05:12:48.287Z,21.90
2024-01-31T05:15:18.009Z,25.50
2024-01-31T05:17:46.369Z,27.55
2024-01-31T05:20:14.929Z,26.80
2024-01-31T05:22:44.006Z,28.38
2024-01-31T05:25:12.635Z,29.75
2024-01-31T05:27:41.117Z,28.95
2024-01-31T05:30:10.428Z,26.65
2024-01-31T05:32:40.266Z,26.52
2024-01-31T05:35:09.774Z,24.95
2024-01-31T05:37:40.372Z,24.55
2024-01-31T05:40:13.212Z,24.35
2024-01-31T05:42:41.622Z,24.67
2024-01-31T05:45:10.951Z,24.67
2024-01-31T05:47:40.732Z,26.83
2024-01-31T05:50:11.244Z,27.25
2024-01-31T05:52:39.914Z,26.60
2024-01-31T05:55:08.908Z,30.98
2024-01-31T05:57:37.284Z,29.48
2024-01-31T06:00:13.459Z,31.13
2024-01-31T06:02:45.738Z,29.73
2024-01-31T06:05:14.917Z,29.20
2024-01-31T06:07:43.480Z,30.00
2024-01-31T06:10:12.023Z,32.08
2024-01-31T06:12:40.326Z,30.80
2024-01-31T06:15:10.192Z,30.40
2024-01-31T06:17:39.529Z,33.08
2024-01-31T06:20:11.703Z,30.65
2024-01-31T06:22:40.257Z,32.22
2024-01-31T06:25:09.368Z,33.85
2024-01-31T06:27:38.829Z,34.72
2024-01-31T06:30:08.725Z,31.88
2024-01-31T06:32:42.177Z,35.63
2024-01-31T06:35:12.156Z,35.20
2024-01-31T06:37:40.656Z,36.50
2024-01-31T06:40:10.428Z,37.10
2024-01-31T06:42:38.796Z,34.58
2024-01-31T06:45:07.695Z,36.42
2024-01-31T06:47:36.063Z,35.95
2024-01-31T06:50:04.807Z,37.08
2024-01-31T06:52:34.730Z,36.80
2024-01-31T06:55:03.431Z,38.28
2024-01-31T06:57:33.068Z,36.95
2024-01-31T07:00:01.532Z,34.90
2024-01-31T07:02:29.853Z,34.15
2024-01-31T07:04:58.190Z,32.65
2024-01-31T07:07:26.599Z,31.65
2024-01-31T07:09:56.347Z,34.10
2024-01-31T07:12:24.800Z,31.73
2024-01-31T07:14:53.363Z,30.52
2024-01-31T07:17:21.717Z,31.33
2024-01-31T07:19:50.023Z,31.27
2024-01-31T07:22:18.462Z,30.38
2024-01-31T07:24:46.901Z,31.75
2024-01-31T07:27:16.696Z,30.25
2024-01-31T07:29:47.484Z,30.38
2024-01-31T07:32:16.041Z,36.33
2024-01-31T07:34:44.386Z,39.15
2024-01-31T07:37:12.734Z,35.65
2024-01-31T07:39:41.108Z,39.08
2024-01-31T07:42:10.105Z,39.25
2024-01-31T07:44:39.769Z,37.35
2024-01-31T07:47:08.166Z,33.60
2024-01-31T07:49:36.618Z,34.28
2024-01-31T07:52:05.499Z,33.80
2024-01-31T07:54:33.818Z,32.88
2024-01-31T07:57:02.228Z,31.40
2024-01-31T07:59:30.558Z,31.95
2024-01-31T08:02:00.355Z,29.45
2024-01-31T08:04:28.927Z,30.08
2024-01-31T08:06:57.276Z,32.97
2024-01-31T08:09:25.729Z,31.95
2024-01-31T08:11:54.119Z,31.50
2024-01-31T08:14:22.570Z,30.63
2024-01-31T08:16:52.633Z,30.02
2024-01-31T08:19:22.623Z,31.48
2024-01-31T08:21:51.040Z,34.70
2024-01-31T08:24:19.874Z,32.53
2024-01-31T08:26:48.337Z,36.55
2024-01-31T08:29:23.502Z,36.97
2024-01-31T08:31:56.212Z,34.55
2024-01-31T08:34:29.637Z,35.58
2024-01-31T08:37:03.793Z,33.22
2024-01-31T08:39:32.640Z,33.10
2024-01-31T08:42:02.505Z,32.40
2024-01-31T08:44:30.936Z,30.77
2024-01-31T08:47:10.847Z,31.92
2024-01-31T08:49:49.817Z,33.25
2024-01-31T08:52:19.190Z,29.00
2024-01-31T08:54:48.473Z,30.63
2024-01-31T08:57:21.993Z,33.28
2024-01-31T08:59:52.776Z,31.05
2024-01-31T09:02:21.696Z,30.70
2024-01-31T09:04:56.762Z,28.70
2024-01-31T09:07:26.657Z,27.52
2024-01-31T09:09:56.616Z,26.08
2024-01-31T09:12:26.790Z,26.83
2024-01-31T09:14:55.328Z,22.48
2024-01-31T09:17:26.945Z,25.48
2024-01-31T09:19:57.012Z,22.70
2024-01-31T09:22:26.269Z,22.48
2024-01-31T09:24:54.614Z,20.00
2024-01-31T09:27:23.041Z,20.08
2024-01-31T09:29:51.692Z,17.17
2024-01-31T09:32:20.105Z,15.88
2024-01-31T09:34:48.590Z,16.08
2024-01-31T09:37:18.412Z,15.05
2024-01-31T09:39:46.832Z,15.88
2024-01-31T09:42:15.222Z,18.33
2024-01-31T09:44:43.727Z,17.25
2024-01-31T09:47:13.625Z,17.95
2024-01-31T09:49:42.018Z,17.52
2024-01-31T09:52:14.283Z,14.48
2024-01-31T09:54:46.645Z,13.05
2024-01-31T09:57:15.398Z,12.60
2024-01-31T09:59:44.063Z,13.95
2024-01-31T10:02:12.686Z,11.25
2024-01-31T10:04:41.194Z,11.55
2024-01-31T10:07:10.111Z,11.38
2024-01-31T10:09:38.489Z,115.32
2024-01-31T10:12:08.979Z,54.33
2024-01-31T10:14:37.339Z,13.07
2024-01-31T10:17:05.850Z,10.80
2024-01-31T10:19:34.551Z,11.15
2024-01-31T10:22:02.961Z,11.40
2024-01-31T10:24:31.523Z,11.77
2024-01-31T10:26:59.973Z,11.90
2024-01-31T10:29:31.142Z,12.30
2024-01-31T10:32:00.705Z,14.18
2024-01-31T10:34:36.669Z,13.32
2024-01-31T10:37:46.513Z,13.98
2024-01-31T10:40:02.664Z,13.68
2024-01-31T10:42:32.006Z,14.75
2024-01-31T10:45:01.828Z,13.68
2024-01-31T10:47:30.454Z,13.75
2024-01-31T10:49:59.816Z,14.55
2024-01-31T10:52:33.586Z,15.90
2024-01-31T10:55:06.972Z,15.65
2024-01-31T10:57:38.972Z,15.13
2024-01-31T11:00:13.078Z,16.45
2024-01-31T11:02:41.712Z,14.68
2024-01-31T11:05:10.451Z,13.88
2024-01-31T11:07:46.881Z,12.77
2024-01-31T11:10:19.308Z,14.00
2024-01-31T11:12:58.839Z,9.93
2024-01-31T11:15:32.679Z,8.75
2024-01-31T11:18:10.651Z,8.05
2024-01-31T11:20:41.770Z,9.80
2024-01-31T11:23:15.476Z,9.25
2024-01-31T11:25:44.450Z,10.15
2024-01-31T11:28:13.862Z,9.05
2024-01-31T11:30:43.987Z,9.63
2024-01-31T11:33:12.622Z,9.48
2024-01-31T11:35:41.171Z,8.70
2024-01-31T11:38:10.415Z,8.90
2024-01-31T11:40:38.781Z,10.75
2024-01-31T11:43:07.968Z,10.10
2024-01-31T11:45:36.311Z,8.65
2024-01-31T11:48:06.973Z,9.68
2024-01-31T11:50:35.830Z,11.18
2024-01-31T11:53:04.874Z,10.40
2024-01-31T11:55:35.339Z,11.18
2024-01-31T11:58:03.800Z,10.20
2024-01-31T12:00:32.910Z,9.13
2024-01-31T12:03:01.605Z,10.20
2024-01-31T12:05:31.475Z,9.77
2024-01-31T12:08:00.935Z,9.02
2024-01-31T12:10:30.446Z,9.80
2024-01-31T12:13:02.260Z,8.60
2024-01-31T12:15:32.582Z,11.98
2024-01-31T12:18:02.589Z,8.55
2024-01-31T12:20:32.920Z,9.20
2024-01-31T12:23:01.293Z,9.60
2024-01-31T12:25:29.768Z,10.23
2024-01-31T12:27:58.180Z,10.05
2024-01-31T12:30:26.706Z,9.50
2024-01-31T12:32:55.173Z,10.32
2024-01-31T12:35:24.265Z,10.13
2024-01-31T12:37:54.152Z,10.90
2024-01-31T12:40:22.485Z,11.30
2024-01-31T12:42:51.574Z,10.90
2024-01-31T12:45:20.244Z,9.27
2024-01-31T12:47:50.880Z,10.38
2024-01-31T12:50:19.598Z,9.32
2024-01-31T12:52:48.780Z,9.30
2024-01-31T12:55:18.624Z,9.32
2024-01-31T12:57:47.571Z,8.43
2024-01-31T13:00:17.089Z,8.70
2024-01-31T13:02:45.494Z,8.32
2024-01-31T13:05:14.285Z,10.55
2024-01-31T13:07:43.279Z,9.52
2024-01-31T13:10:12.229Z,10.18
2024-01-31T13:12:42.010Z,9.73
2024-01-31T13:15:11.245Z,10.93
2024-01-31T13:17:39.831Z,9.50
2024-01-31T13:20:10.587Z,9.93
2024-01-31T13:22:39.170Z,9.43
2024-01-31T13:25:08.918Z,10.98
2024-01-31T13:27:37.243Z,13.07
2024-01-31T13:30:12.672Z,9.90
2024-01-31T13:32:41.888Z,8.45
2024-01-31T13:35:10.927Z,9.55
2024-01-31T13:37:39.243Z,11.30
2024-01-31T13:40:10.088Z,10.55
2024-01-31T13:42:38.609Z,10.70
2024-01-31T13:45:09.439Z,10.57
2024-01-31T13:47:38.593Z,9.65
2024-01-31T13:50:08.319Z,11.57
2024-01-31T13:52:36.676Z,9.70
2024-01-31T13:55:05.128Z,9.65
2024-01-31T13:57:33.522Z,11.20
2024-01-31T14:00:07.900Z,10.27
2024-01-31T14:02:39.186Z,12.05
2024-01-31T14:05:10.925Z,11.75
2024-01-31T14:07:40.546Z,11.10
2024-01-31T14:10:09.661Z,12.00
2024-01-31T14:12:38.867Z,11.48
2024-01-31T14:15:08.312Z,11.90
2024-01-31T14:17:38.799Z,11.68
2024-01-31T14:20:08.930Z,12.40
2024-01-31T14:22:56.562Z,11.38
2024-01-31T14:25:28.545Z,10.57
2024-01-31T14:27:59.804Z,11.20
2024-01-31T14:30:31.465Z,12.65
2024-01-31T14:33:03.701Z,18.38
2024-01-31T14:35:46.141Z,13.68
2024-01-31T14:38:15.329Z,11.90
2024-01-31T14:40:53.147Z,12.73
2024-01-31T14:43:23.093Z,11.88
2024-01-31T14:45:52.408Z,10.60
2024-01-31T14:48:26.622Z,12.07
2024-01-31T14:51:03.158Z,11.80
2024-01-31T14:53:33.101Z,12.18
2024-01-31T14:56:16.014Z,11.10
2024-01-31T14:58:49.157Z,14.33
2024-01-31T15:05:43.974Z,19.80
2024-01-31T15:10:51.610Z,28.25
2024-01-31T15:13:24.229Z,30.30
2024-01-31T15:16:15.728Z,37.17
2024-01-31T15:18:52.644Z,37.53
2024-01-31T15:21:25.406Z,40.22
2024-01-31T15:24:09.119Z,42.63
2024-01-31T15:26:40.562Z,44.25
2024-01-31T15:29:15.022Z,35.55
2024-01-31T15:31:44.308Z,25.35
2024-01-31T15:34:15.315Z,20.88
2024-01-31T15:36:52.923Z,17.30
2024-01-31T15:39:22.934Z,16.75
2024-01-31T15:41:51.577Z,18.17
2024-01-31T15:44:22.660Z,16.25
2024-01-31T15:46:51.314Z,17.02
2024-01-31T15:49:20.094Z,16.90
2024-01-31T15:51:50.301Z,16.95
2024-01-31T15:54:19.856Z,16.33
2024-01-31T15:56:48.883Z,17.90
2024-01-31T15:59:17.363Z,16.52
2024-01-31T16:01:45.839Z,18.13
2024-01-31T16:04:14.321Z,17.52
2024-01-31T16:06:53.138Z,19.20
2024-01-31T16:09:22.054Z,18.83
2024-01-31T16:11:50.714Z,19.45
2024-01-31T16:14:19.779Z,19.08
2024-01-31T16:16:48.160Z,19.42
2024-01-31T16:19:18.405Z,19.88
2024-01-31T16:21:49.071Z,19.40
2024-01-31T16:24:19.127Z,19.45
2024-01-31T16:26:47.519Z,19.65
2024-01-31T16:29:15.938Z,19.13
2024-01-31T16:31:45.039Z,18.52
2024-01-31T16:34:17.380Z,21.55
2024-01-31T16:36:46.055Z,19.35
2024-01-31T16:39:14.616Z,19.42
2024-01-31T16:41:44.373Z,20.15
2024-01-31T16:44:12.767Z,18.65
2024-01-31T16:46:41.457Z,18.27
2024-01-31T16:49:09.860Z,19.08
2024-01-31T16:51:38.359Z,20.40
2024-01-31T16:54:07.409Z,21.52
2024-01-31T16:56:35.882Z,22.55
2024-01-31T16:59:05.687Z,21.95
2024-01-31T17:01:34.121Z,20.85
2024-01-31T17:04:02.770Z,23.85
2024-01-31T17:06:31.612Z,21.60
2024-01-31T17:09:00.276Z,21.88
2024-01-31T17:11:31.661Z,21.90
2024-01-31T17:14:00.426Z,21.80
2024-01-31T17:16:30.493Z,21.75
2024-01-31T17:18:59.259Z,24.67
2024-01-31T17:21:27.938Z,26.40
2024-01-31T17:23:56.533Z,26.15
2024-01-31T17:26:25.323Z,25.38
2024-01-31T17:28:53.840Z,24.73
2024-01-31T17:31:22.602Z,24.70
2024-01-31T17:33:55.298Z,24.30
2024-01-31T17:36:25.848Z,25.98
2024-01-31T17:38:54.648Z,23.65
2024-01-31T17:41:23.083Z,22.77
2024-01-31T17:43:51.358Z,23.85
2024-01-31T17:46:23.296Z,22.75
2024-01-31T17:48:53.094Z,23.30
2024-01-31T17:51:21.519Z,23.23
2024-01-31T17:53:49.846Z,22.92
2024-01-31T17:56:22.826Z,23.33
2024-01-31T17:58:52.042Z,22.48
2024-01-31T18:01:20.342Z,22.50
2024-01-31T18:03:50.947Z,19.42
2024-01-31T18:06:21.529Z,21.20
2024-01-31T18:08:50.810Z,21.88
2024-01-31T18:11:19.580Z,22.92
2024-01-31T18:13:51.568Z,20.33
2024-01-31T18:16:21.325Z,20.83
2024-01-31T18:18:50.563Z,20.85
2024-01-31T18:21:21.066Z,18.90
2024-01-31T18:23:54.187Z,19.45
2024-01-31T18:26:24.062Z,19.52
2024-01-31T18:28:53.446Z,20.38
2024-01-31T18:31:22.480Z,18.50
2024-01-31T18:33:52.905Z,18.10
2024-01-31T18:36:24.027Z,20.40
2024-01-31T18:38:53.815Z,19.80
2024-01-31T18:41:23.584Z,20.00
2024-01-31T18:43:52.605Z,21.45
2024-01-31T18:46:21.564Z,20.98
2024-01-31T18:48:51.917Z,23.33
2024-01-31T18:51:22.776Z,23.30
2024-01-31T18:53:50.734Z,23.77
2024-01-31T18:56:20.115Z,27.02
2024-01-31T18:58:49.118Z,25.05
2024-01-31T19:01:19.553Z,23.90
2024-01-31T19:03:49.448Z,24.13
2024-01-31T19:06:19.902Z,23.42
2024-01-31T19:08:50.458Z,26.08
2024-01-31T19:11:23.243Z,25.95
2024-01-31T19:13:55.667Z,26.25
2024-01-31T19:16:25.090Z,24.55
2024-01-31T19:18:54.161Z,26.48
2024-01-31T19:21:24.225Z,27.27
2024-01-31T19:23:55.134Z,28.20
2024-01-31T19:26:26.928Z,27.15
2024-01-31T19:28:56.380Z,28.02
2024-01-31T19:31:25.327Z,29.88
2024-01-31T19:33:54.817Z,31.63
2024-01-31T19:36:25.789Z,32.30
2024-01-31T19:38:57.179Z,32.88
2024-01-31T19:41:27.684Z,35.50
2024-01-31T19:43:58.312Z,41.05
2024-01-31T19:46:27.956Z,46.03
2024-01-31T19:48:58.130Z,46.13
2024-01-31T19:51:29.557Z,55.85
2024-01-31T19:54:01.422Z,66.75
2024-01-31T19:56:31.678Z,61.88
2024-01-31T19:59:01.279Z,60.65
2024-01-31T20:01:31.113Z,66.03
2024-01-31T20:04:01.915Z,65.15
2024-01-31T20:06:35.656Z,64.22
2024-01-31T20:09:08.940Z,66.32
2024-01-31T20:11:39.257Z,61.45
2024-01-31T20:14:10.608Z,72.10
2024-01-31T20:16:40.576Z,70.72
2024-01-31T20:19:11.397Z,69.93
2024-01-31T20:21:45.762Z,66.75
2024-01-31T20:24:17.727Z,70.80
2024-01-31T20:26:47.866Z,74.90
2024-01-31T20:29:17.667Z,75.38
2024-01-31T20:31:47.935Z,75.22
2024-01-31T20:34:19.068Z,74.10
2024-01-31T20:36:50.297Z,75.20
2024-01-31T20:39:22.265Z,79.32
2024-01-31T20:41:52.283Z,76.83
2024-01-31T20:44:22.314Z,74.15
2024-01-31T20:46:57.788Z,73.65
2024-01-31T20:49:28.429Z,71.00
2024-01-31T20:51:58.523Z,70.38
2024-01-31T20:54:29.394Z,75.82
2024-01-31T20:56:58.803Z,71.10
2024-01-31T20:59:28.075Z,79.18
2024-01-31T21:01:57.663Z,72.03
2024-01-31T21:04:28.921Z,64.53
2024-01-31T21:06:58.956Z,54.65
2024-01-31T21:09:29.574Z,52.42
2024-01-31T21:11:58.898Z,60.15
2024-01-31T21:14:28.854Z,63.63
2024-01-31T21:17:00.058Z,60.13
2024-01-31T21:19:29.104Z,61.13
2024-01-31T21:21:59.617Z,60.78
2024-01-31T21:24:30.208Z,60.30
2024-01-31T21:26:59.257Z,63.25
2024-01-31T21:29:28.271Z,57.10
2024-01-31T21:31:56.801Z,56.58
2024-01-31T21:34:25.225Z,56.75
2024-01-31T21:36:53.683Z,53.85
2024-01-31T21:39:21.999Z,52.95
2024-01-31T21:41:52.003Z,50.00
2024-01-31T21:44:20.363Z,50.17
2024-01-31T21:46:49.124Z,47.72
2024-01-31T21:49:17.585Z,44.17
2024-01-31T21:51:46.126Z,45.47
2024-01-31T21:54:14.585Z,45.17
2024-01-31T21:56:43.075Z,40.45
2024-01-31T21:59:12.840Z,39.65
2024-01-31T22:01:41.123Z,37.13
2024-01-31T22:04:13.412Z,36.88
2024-01-31T22:06:47.878Z,32.90
2024-01-31T22:09:16.328Z,30.33
2024-01-31T22:11:44.769Z,28.90
2024-01-31T22:14:14.740Z,31.05
2024-01-31T22:16:43.227Z,50.75
2024-01-31T22:19:11.996Z,41.08
2024-01-31T22:21:42.767Z,37.50
2024-01-31T22:24:11.462Z,33.42
2024-01-31T22:26:41.570Z,35.53
2024-01-31T22:29:10.222Z,37.97
2024-01-31T22:31:45.467Z,42.33
2024-01-31T22:34:14.204Z,43.75
2024-01-31T22:36:42.894Z,45.28
2024-01-31T22:39:18.312Z,41.53
2024-01-31T22:41:47.803Z,39.85
2024-01-31T22:44:16.129Z,41.80
2024-01-31T22:46:46.308Z,41.80
2024-01-31T22:49:15.352Z,40.63
2024-01-31T22:51:44.289Z,40.78
2024-01-31T22:54:13.045Z,35.75
2024-01-31T22:56:41.976Z,38.05
2024-01-31T22:59:10.865Z,41.67
2024-01-31T23:01:40.639Z,42.22
2024-01-31T23:04:10.839Z,39.75
2024-01-31T23:06:39.997Z,43.08
2024-01-31T23:09:09.628Z,41.88
2024-01-31T23:11:38.573Z,44.38
2024-01-31T23:14:08.039Z,42.55
2024-01-31T23:16:37.044Z,40.22
2024-01-31T23:19:05.959Z,39.88
2024-01-31T23:21:35.991Z,41.53
2024-01-31T23:24:05.057Z,42.67
2024-01-31T23:26:34.906Z,40.33
2024-01-31T23:29:06.748Z,40.83
2024-01-31T23:31:35.560Z,40.90
2024-01-31T23:34:04.181Z,37.17
2024-01-31T23:36:32.690Z,36.03
2024-01-31T23:39:03.176Z,36.30
2024-01-31T23:41:31.796Z,35.58
2024-01-31T23:44:00.527Z,34.28
2024-01-31T23:46:29.213Z,31.63
2024-01-31T23:48:58.076Z,30.38
2024-01-31T23:51:26.675Z,33.50
2024-01-31T23:53:55.264Z,32.22
2024-01-31T23:56:25.661Z,32.15
2024-01-31T23:58:54.804Z,32.10
